createdAt,value
2019-04-03T00:02:15.808Z,9.39
2019-04-03T00:05:22.647Z,9.43
2019-04-03T00:08:29.539Z,9.62
2019-04-03T00:11:39.511Z,9.93
2019-04-03T00:14:45.872Z,9.93
2019-04-03T00:17:52.735Z,9.99
2019-04-03T00:21:02.329Z,9.81
2019-04-03T00:24:09.781Z,9.61
2019-04-03T00:27:16.659Z,9.64
2019-04-03T00:30:24.750Z,9.90
2019-04-03T00:33:31.618Z,9.87
2019-04-03T00:36:38.468Z,9.94
2019-04-03T00:39:47.527Z,9.91
2019-04-03T00:42:54.848Z,9.76
2019-04-03T00:46:01.837Z,9.96
2019-04-03T00:49:08.678Z,10.16
2019-04-03T00:52:15.569Z,10.17
2019-04-03T00:55:22.411Z,10.15
2019-04-03T00:58:47.712Z,10.16
2019-04-03T01:01:56.065Z,10.25
2019-04-03T01:05:03.760Z,10.12
2019-04-03T01:08:10.986Z,10.20
2019-04-03T01:11:17.972Z,10.22
2019-04-03T01:14:24.793Z,10.16
2019-04-03T01:17:34.399Z,10.10
2019-04-03T01:20:40.405Z,10.21
2019-04-03T01:23:50.170Z,10.12
2019-04-03T01:26:57.415Z,9.94
2019-04-03T01:30:04.711Z,9.69
2019-04-03T01:33:11.648Z,10.00
2019-04-03T01:36:18.527Z,9.78
2019-04-03T01:39:25.364Z,10.06
2019-04-03T01:42:32.241Z,10.15
2019-04-03T01:45:39.543Z,10.06
2019-04-03T01:48:49.222Z,9.98
2019-04-03T01:51:56.182Z,9.60
2019-04-03T01:55:04.254Z,9.15
2019-04-03T01:58:11.394Z,9.13
2019-04-03T02:01:18.251Z,9.58
2019-04-03T02:04:25.098Z,9.46
2019-04-03T02:07:31.969Z,9.38
2019-04-03T02:10:39.304Z,9.04
2019-04-03T02:13:46.989Z,9.19
2019-04-03T02:16:54.069Z,9.31
2019-04-03T02:20:01.155Z,9.16
2019-04-03T02:23:08.030Z,8.94
2019-04-03T02:26:14.910Z,8.98
2019-04-03T02:29:22.325Z,9.22
2019-04-03T02:32:29.262Z,9.34
2019-04-03T02:35:38.749Z,9.38
2019-04-03T02:38:46.941Z,9.34
2019-04-03T02:41:53.821Z,9.67
2019-04-03T02:45:00.811Z,9.72
2019-04-03T02:48:07.718Z,9.91
2019-04-03T02:51:17.006Z,9.81
2019-04-03T02:54:34.811Z,9.66
2019-04-03T02:57:39.101Z,9.56
2019-04-03T03:00:46.335Z,9.48
2019-04-03T03:03:53.216Z,9.48
2019-04-03T03:07:03.375Z,9.48
2019-04-03T03:10:09.437Z,9.62
2019-04-03T03:13:16.533Z,9.57
2019-04-03T03:16:23.558Z,9.59
2019-04-03T03:19:33.022Z,9.69
2019-04-03T03:22:41.527Z,9.70
2019-04-03T03:25:51.184Z,9.62
2019-04-03T03:29:14.161Z,9.17
2019-04-03T03:32:14.890Z,9.39
2019-04-03T03:35:25.999Z,9.49
2019-04-03T03:38:28.167Z,9.27
2019-04-03T03:41:34.640Z,9.15
2019-04-03T03:44:46.067Z,9.15
2019-04-03T03:47:53.347Z,9.32
2019-04-03T03:51:01.172Z,9.28
2019-04-03T03:54:08.069Z,8.73
2019-04-03T03:57:14.894Z,8.69
2019-04-03T04:00:23.220Z,9.03
2019-04-03T04:03:31.486Z,9.11
2019-04-03T04:06:38.628Z,9.03
2019-04-03T04:09:49.579Z,8.90
2019-04-03T04:12:54.052Z,9.13
2019-04-03T04:16:03.826Z,8.93
2019-04-03T04:19:10.069Z,8.34
2019-04-03T04:22:18.187Z,8.60
2019-04-03T04:25:25.973Z,8.61
2019-04-03T04:28:32.929Z,7.88
2019-04-03T04:31:43.356Z,8.16
2019-04-03T04:34:50.648Z,8.46
2019-04-03T04:37:57.629Z,8.41
2019-04-03T04:41:04.552Z,8.71
2019-04-03T04:44:14.215Z,8.58
2019-04-03T04:47:19.974Z,8.34
2019-04-03T04:50:26.969Z,8.69
2019-04-03T04:53:33.814Z,8.86
2019-04-03T04:56:41.077Z,8.69
2019-04-03T04:59:48.568Z,8.64
2019-04-03T05:02:56.572Z,8.71
2019-04-03T05:06:04.820Z,8.67
2019-04-03T05:09:11.701Z,8.53
2019-04-03T05:12:19.080Z,8.65
2019-04-03T05:15:26.099Z,8.70
2019-04-03T05:18:32.973Z,8.74
2019-04-03T05:21:40.393Z,9.00
2019-04-03T05:24:47.298Z,9.07
2019-04-03T05:27:54.215Z,8.55
2019-04-03T05:31:01.250Z,8.60
2019-04-03T05:34:08.128Z,8.83
2019-04-03T05:37:18.026Z,9.05
2019-04-03T05:40:26.209Z,8.94
2019-04-03T05:43:36.195Z,8.84
2019-04-03T05:46:43.150Z,8.91
2019-04-03T05:49:51.698Z,8.84
2019-04-03T05:52:58.577Z,8.64
2019-04-03T05:56:05.416Z,8.92
2019-04-03T05:59:12.312Z,8.99
2019-04-03T06:02:21.385Z,9.13
2019-04-03T06:05:29.513Z,9.05
2019-04-03T06:08:36.445Z,9.13
2019-04-03T06:11:43.304Z,9.16
2019-04-03T06:14:50.938Z,9.19
2019-04-03T06:17:57.915Z,8.95
2019-04-03T06:21:05.760Z,9.10
2019-04-03T06:24:12.772Z,9.29
2019-04-03T06:27:20.043Z,9.44
2019-04-03T06:30:27.511Z,9.47
2019-04-03T06:33:36.070Z,9.45
2019-04-03T06:36:43.194Z,9.34
2019-04-03T06:39:50.367Z,9.45
2019-04-03T06:42:57.376Z,9.52
2019-04-03T06:46:04.285Z,9.41
2019-04-03T06:49:11.199Z,9.64
2019-04-03T06:52:19.450Z,9.76
2019-04-03T06:55:26.855Z,9.96
2019-04-03T06:58:39.384Z,10.14
2019-04-03T07:01:42.857Z,10.58
2019-04-03T07:04:49.698Z,10.60
2019-04-03T07:07:56.583Z,10.97
2019-04-03T07:11:03.573Z,10.97
2019-04-03T07:14:11.638Z,10.77
2019-04-03T07:17:19.599Z,11.07
2019-04-03T07:20:26.822Z,11.17
2019-04-03T07:23:33.932Z,10.83
2019-04-03T07:26:40.835Z,11.16
2019-04-03T07:29:48.925Z,11.07
2019-04-03T07:32:57.989Z,11.23
2019-04-03T07:36:05.007Z,11.36
2019-04-03T07:39:12.031Z,11.46
2019-04-03T07:42:20.035Z,11.51
2019-04-03T07:45:27.115Z,11.56
2019-04-03T07:48:34.074Z,11.80
2019-04-03T07:51:42.728Z,12.04
2019-04-03T07:54:51.867Z,11.84
2019-04-03T07:57:59.973Z,11.94
2019-04-03T08:01:09.509Z,11.98
2019-04-03T08:04:16.625Z,12.05
2019-04-03T08:07:25.194Z,12.16
2019-04-03T08:10:33.055Z,12.41
2019-04-03T08:13:40.208Z,12.58
2019-04-03T08:16:48.830Z,12.56
2019-04-03T08:19:55.791Z,12.64
2019-04-03T08:23:04.727Z,12.74
2019-04-03T08:26:12.192Z,12.88
2019-04-03T08:29:19.342Z,13.15
2019-04-03T08:32:29.099Z,13.12
2019-04-03T08:35:36.459Z,13.17
2019-04-03T08:38:44.903Z,13.03
2019-04-03T08:41:55.285Z,13.21
2019-04-03T08:45:01.964Z,13.05
2019-04-03T08:48:09.110Z,13.13
2019-04-03T08:51:15.993Z,13.41
2019-04-03T08:54:28.631Z,13.79
2019-04-03T08:57:35.509Z,13.77
2019-04-03T09:00:42.391Z,13.51
2019-04-03T09:03:49.238Z,13.70
2019-04-03T09:06:56.354Z,14.00
2019-04-03T09:10:03.288Z,13.91
2019-04-03T09:13:17.791Z,13.89
2019-04-03T09:16:19.136Z,14.01
2019-04-03T09:19:27.158Z,14.11
2019-04-03T09:22:34.511Z,13.96
2019-04-03T09:25:41.583Z,14.28
2019-04-03T09:28:48.523Z,14.26
2019-04-03T09:31:56.611Z,14.34
2019-04-03T09:35:04.032Z,14.43
2019-04-03T09:38:11.038Z,14.50
2019-04-03T09:41:19.549Z,14.13
2019-04-03T09:44:26.474Z,14.53
2019-04-03T09:47:34.975Z,15.27
2019-04-03T09:50:42.204Z,15.29
2019-04-03T09:53:49.247Z,15.68
2019-04-03T09:57:01.654Z,15.84
2019-04-03T10:00:09.895Z,15.30
2019-04-03T10:03:15.709Z,15.79
2019-04-03T10:06:22.579Z,15.85
2019-04-03T10:09:30.970Z,14.97
2019-04-03T10:12:57.065Z,15.71
2019-04-03T10:16:04.395Z,15.03
2019-04-03T10:19:13.543Z,15.96
2019-04-03T10:22:19.963Z,15.54
2019-04-03T10:25:26.827Z,16.15
2019-04-03T10:28:35.524Z,15.67
2019-04-03T10:31:42.698Z,16.22
2019-04-03T10:34:50.032Z,15.61
2019-04-03T10:37:56.960Z,15.46
2019-04-03T10:41:04.039Z,15.72
2019-04-03T10:44:12.693Z,15.14
2019-04-03T10:47:24.707Z,15.47
2019-04-03T10:50:29.681Z,15.80
2019-04-03T10:53:36.904Z,15.60
2019-04-03T10:56:44.136Z,15.37
2019-04-03T10:59:54.506Z,16.21
2019-04-03T11:02:59.691Z,16.04
2019-04-03T11:06:06.676Z,16.16
2019-04-03T11:09:13.627Z,15.13
2019-04-03T11:12:20.564Z,15.70
2019-04-03T11:15:28.694Z,15.82
2019-04-03T11:18:35.880Z,16.18
2019-04-03T11:21:44.084Z,16.29
2019-04-03T11:24:51.882Z,16.55
2019-04-03T11:27:58.828Z,17.30
2019-04-03T11:31:06.165Z,17.13
2019-04-03T11:34:13.189Z,17.27
2019-04-03T11:37:20.099Z,16.99
2019-04-03T11:40:27.939Z,17.09
2019-04-03T11:43:34.959Z,17.32
2019-04-03T11:46:41.875Z,16.49
2019-04-03T11:49:49.827Z,17.26
2019-04-03T11:53:01.506Z,17.54
2019-04-03T11:56:06.608Z,17.42
2019-04-03T11:59:13.904Z,18.11
2019-04-03T12:02:24.028Z,17.39
2019-04-03T12:05:31.462Z,17.44
2019-04-03T12:08:38.467Z,17.88
2019-04-03T12:11:45.402Z,18.01
2019-04-03T12:14:52.281Z,17.85
2019-04-03T12:18:01.528Z,17.51
2019-04-03T12:21:09.957Z,17.52
2019-04-03T12:24:16.557Z,17.85
2019-04-03T12:27:26.258Z,18.39
2019-04-03T12:30:33.201Z,17.76
2019-04-03T12:33:52.011Z,18.22
2019-04-03T12:36:49.027Z,18.27
2019-04-03T12:39:56.270Z,17.82
2019-04-03T12:43:03.286Z,18.06
2019-04-03T12:46:10.167Z,17.63
2019-04-03T12:49:17.457Z,18.49
2019-04-03T12:52:25.745Z,18.39
2019-04-03T12:55:33.897Z,18.53
2019-04-03T12:58:40.990Z,18.52
2019-04-03T13:01:49.241Z,18.53
2019-04-03T13:04:56.961Z,18.72
2019-04-03T13:08:04.133Z,18.97
2019-04-03T13:11:11.178Z,18.35
2019-04-03T13:14:25.666Z,18.95
2019-04-03T13:17:27.199Z,19.25
2019-04-03T13:20:36.053Z,19.48
2019-04-03T13:23:45.745Z,19.26
2019-04-03T13:26:51.515Z,19.11
2019-04-03T13:29:58.427Z,19.27
2019-04-03T13:33:07.107Z,19.04
2019-04-03T13:36:13.876Z,18.87
2019-04-03T13:39:21.144Z,19.22
2019-04-03T13:42:31.062Z,19.38
2019-04-03T13:45:36.965Z,19.28
2019-04-03T13:48:44.976Z,19.51
2019-04-03T13:51:52.779Z,20.26
2019-04-03T13:55:00.091Z,19.77
2019-04-03T13:58:07.520Z,19.29
2019-04-03T14:01:14.829Z,18.97
2019-04-03T14:04:23.349Z,19.42
2019-04-03T14:07:31.622Z,18.78
2019-04-03T14:10:38.997Z,18.95
2019-04-03T14:13:45.978Z,18.56
2019-04-03T14:16:52.884Z,19.13
2019-04-03T14:19:59.808Z,19.17
2019-04-03T14:23:06.722Z,19.22
2019-04-03T14:26:14.663Z,19.16
2019-04-03T14:29:47.210Z,19.30
2019-04-03T14:32:34.549Z,19.08
2019-04-03T14:35:49.873Z,18.99
2019-04-03T14:38:50.298Z,19.34
2019-04-03T14:41:57.172Z,18.91
2019-04-03T14:45:05.228Z,19.11
2019-04-03T14:48:12.825Z,19.24
2019-04-03T14:51:22.938Z,18.79
2019-04-03T14:54:31.551Z,18.62
2019-04-03T14:57:39.334Z,18.86
2019-04-03T15:00:49.853Z,18.79
2019-04-03T15:04:00.759Z,19.08
2019-04-03T15:07:09.533Z,19.17
2019-04-03T15:10:17.837Z,18.80
2019-04-03T15:13:26.704Z,19.12
2019-04-03T15:16:33.764Z,18.99
2019-04-03T15:19:40.698Z,18.60
2019-04-03T15:22:47.887Z,18.10
2019-04-03T15:25:55.773Z,18.41
2019-04-03T15:29:02.809Z,18.14
2019-04-03T15:32:09.796Z,18.00
2019-04-03T15:35:17.126Z,17.73
2019-04-03T15:38:24.420Z,17.84
2019-04-03T15:41:34.208Z,17.80
2019-04-03T15:44:41.115Z,17.58
2019-04-03T15:47:48.453Z,17.62
2019-04-03T15:50:55.504Z,17.51
2019-04-03T15:54:02.399Z,17.42
2019-04-03T15:57:09.252Z,17.26
2019-04-03T16:00:21.331Z,17.20
2019-04-03T16:03:29.132Z,17.16
2019-04-03T16:06:36.801Z,16.87
2019-04-03T16:09:44.688Z,16.82
2019-04-03T16:12:52.038Z,16.74
2019-04-03T16:16:01.561Z,16.50
2019-04-03T16:19:11.376Z,16.53
2019-04-03T16:22:17.185Z,16.60
2019-04-03T16:25:24.415Z,16.45
2019-04-03T16:28:34.079Z,16.39
2019-04-03T16:31:39.996Z,16.34
2019-04-03T16:34:47.463Z,16.24
2019-04-03T16:37:56.580Z,16.31
2019-04-03T16:41:03.571Z,16.33
2019-04-03T16:44:10.537Z,16.21
2019-04-03T16:47:17.985Z,16.19
2019-04-03T16:50:27.322Z,16.08
2019-04-03T16:53:33.755Z,16.06
2019-04-03T16:56:40.803Z,15.97
2019-04-03T16:59:47.986Z,15.67
2019-04-03T17:02:59.118Z,15.57
2019-04-03T17:06:06.776Z,15.61
2019-04-03T17:09:13.867Z,15.59
2019-04-03T17:12:20.760Z,15.35
2019-04-03T17:15:32.263Z,14.74
2019-04-03T17:18:37.291Z,15.00
2019-04-03T17:21:44.395Z,14.61
2019-04-03T17:24:53.980Z,14.81
2019-04-03T17:28:04.583Z,14.51
2019-04-03T17:31:09.075Z,14.70
2019-04-03T17:34:16.082Z,13.97
2019-04-03T17:37:25.493Z,13.05
2019-04-03T17:40:31.536Z,13.33
2019-04-03T17:43:38.548Z,13.29
2019-04-03T17:46:48.612Z,13.92
2019-04-03T17:49:55.236Z,13.92
2019-04-03T17:53:02.187Z,13.68
2019-04-03T17:56:12.346Z,13.87
2019-04-03T17:59:18.319Z,13.78
2019-04-03T18:02:29.528Z,13.79
2019-04-03T18:05:36.103Z,13.54
2019-04-03T18:08:43.412Z,13.61
2019-04-03T18:11:50.293Z,13.65
2019-04-03T18:14:57.515Z,12.91
2019-04-03T18:18:05.230Z,12.93
2019-04-03T18:21:13.086Z,12.77
2019-04-03T18:24:23.025Z,12.31
2019-04-03T18:27:34.941Z,12.89
2019-04-03T18:30:42.550Z,12.43
2019-04-03T18:33:49.981Z,12.07
2019-04-03T18:36:57.962Z,12.04
2019-04-03T18:40:05.832Z,12.34
2019-04-03T18:43:12.726Z,12.71
2019-04-03T18:46:31.521Z,12.50
2019-04-03T18:49:32.339Z,12.86
2019-04-03T18:52:39.519Z,12.90
2019-04-03T18:55:46.453Z,12.95
2019-04-03T18:58:55.115Z,13.03
2019-04-03T19:02:03.773Z,13.04
2019-04-03T19:05:13.815Z,12.99
2019-04-03T19:08:19.541Z,13.08
2019-04-03T19:11:29.600Z,13.03
2019-04-03T19:14:39.390Z,13.03
2019-04-03T19:17:46.255Z,13.13
2019-04-03T19:20:53.284Z,13.06
2019-04-03T19:24:00.235Z,12.96
2019-04-03T19:27:07.172Z,13.04
2019-04-03T19:30:18.910Z,12.92
2019-04-03T19:33:28.052Z,12.82
2019-04-03T19:36:34.924Z,12.99
2019-04-03T19:39:41.827Z,13.00
2019-04-03T19:42:49.053Z,12.99
2019-04-03T19:45:56.051Z,13.01
2019-04-03T19:49:03.100Z,13.02
2019-04-03T19:52:10.075Z,12.99
2019-04-03T19:55:19.351Z,13.03
2019-04-03T19:58:28.933Z,12.97
2019-04-03T20:01:34.536Z,12.95
2019-04-03T20:04:41.443Z,12.71
2019-04-03T20:07:48.366Z,12.79
2019-04-03T20:10:55.352Z,12.27
2019-04-03T20:14:02.862Z,12.41
2019-04-03T20:17:11.270Z,12.46
2019-04-03T20:20:18.138Z,12.42
2019-04-03T20:23:30.300Z,12.51
2019-04-03T20:26:38.256Z,12.49
2019-04-03T20:29:45.191Z,12.27
2019-04-03T20:32:52.319Z,12.34
2019-04-03T20:35:59.337Z,12.32
2019-04-03T20:39:09.659Z,12.23
2019-04-03T20:42:16.570Z,12.13
2019-04-03T20:45:23.564Z,11.71
2019-04-03T20:48:30.449Z,11.43
2019-04-03T20:51:38.024Z,11.57
2019-04-03T20:54:47.593Z,11.81
2019-04-03T20:57:56.052Z,11.69
2019-04-03T21:01:06.679Z,11.53
2019-04-03T21:04:14.621Z,11.65
2019-04-03T21:07:23.764Z,11.39
2019-04-03T21:10:31.187Z,11.21
2019-04-03T21:13:39.778Z,11.32
2019-04-03T21:16:48.469Z,11.26
2019-04-03T21:19:58.254Z,11.31
2019-04-03T21:23:05.102Z,11.27
2019-04-03T21:26:13.790Z,11.35
2019-04-03T21:29:20.819Z,11.50
2019-04-03T21:32:28.803Z,11.68
2019-04-03T21:35:36.499Z,11.62
2019-04-03T21:38:44.249Z,11.87
2019-04-03T21:41:51.123Z,11.77
2019-04-03T21:44:58.085Z,11.86
2019-04-03T21:48:04.964Z,11.83
2019-04-03T21:51:11.952Z,11.76
2019-04-03T21:54:18.801Z,11.74
2019-04-03T21:57:25.729Z,11.71
2019-04-03T22:01:18.067Z,11.61
2019-04-03T22:04:25.073Z,11.50
2019-04-03T22:07:34.582Z,11.52
2019-04-03T22:10:50.271Z,11.43
2019-04-03T22:13:56.021Z,11.51
2019-04-03T22:17:04.354Z,11.57
2019-04-03T22:20:11.200Z,11.49
2019-04-03T22:23:18.106Z,11.43
2019-04-03T22:26:24.951Z,11.59
2019-04-03T22:29:31.832Z,11.43
2019-04-03T22:32:41.301Z,11.21
2019-04-03T22:35:47.198Z,11.49
2019-04-03T22:38:54.158Z,11.31
2019-04-03T22:42:02.058Z,11.14
2019-04-03T22:45:09.031Z,11.17
2019-04-03T22:48:15.918Z,11.26
2019-04-03T22:51:22.811Z,11.52
2019-04-03T22:54:29.816Z,11.65
2019-04-03T22:57:36.658Z,11.51
2019-04-03T23:00:46.107Z,11.26
2019-04-03T23:03:52.994Z,11.31
2019-04-03T23:06:59.879Z,10.79
2019-04-03T23:10:07.353Z,11.06
2019-04-03T23:13:14.240Z,11.55
2019-04-03T23:16:21.343Z,12.02
2019-04-03T23:19:28.591Z,12.13
2019-04-03T23:22:35.371Z,11.87
2019-04-03T23:25:43.253Z,11.80
2019-04-03T23:28:50.129Z,11.52
2019-04-03T23:31:57.068Z,11.46
2019-04-03T23:35:03.969Z,11.38
2019-04-03T23:38:10.887Z,11.39
2019-04-03T23:41:17.716Z,11.51
2019-04-03T23:44:24.608Z,11.45
2019-04-03T23:47:32.537Z,11.38
2019-04-03T23:50:40.146Z,11.35
2019-04-03T23:53:49.003Z,11.29
2019-04-03T23:56:55.571Z,11.35
